Terminal Aerodrome Forecast
Issued by NWS

Home | Current Version | Previous Version | Text Only | Print | Product List | Glossary On
Versions: 1 2 3 4 5 6 7 8 9 10 11 12 13 14 15 16 17
000
FTAK31 PAFA 242339 CCB
TAFAFA
TAF COR
PAFA 242339Z 2500/2606 VRB04KT 2SM -SN BR BKN025 OVC035
     FM250500 VRB04KT 6SM -SN BR BKN025 OVC035
     FM251200 VRB04KT P6SM VCSH SCT015 BKN025 OVC035
     FM251700 VRB04KT P6SM VCSH SCT025 BKN070=

USA.gov is the U.S. government's official web portal to all federal, state and local government web resources and services.